Aérodrome :
LOGIN :

S'inscrire | Disclaimer

   EN    FR    IT 

 










Légende :    VFR   VFR Marginal   IFR   IFR Intensif   IFR Très Intensif
Visi : 
Plafond : 
>= 8 km
>= 3000ft
5 à 8 km
1000 à 3000 ft
1500m à 5 km
500 à 1000 ft
800 à 1500m
200 à 500 ft
< 800m
< 200 ft
Symboles :   Orages  Brouillard  Fortes neiges  Fortes précipitations  Vent > 20 kt
SIGMETs :   Divers  Orages  Givrage  Turbulence  Onde Orograph.  Cendres Volcan.






- Altitude de l'aérodrome : 84 ft


LFBC - Cazaux

DERNIER METAR :
  • 180330Z AUTO 19003KT 9999 // NSC 05/04 Q1030

METARs EXPIRÉS :
  • 180300Z AUTO 18004KT 9999 // NSC 05/05 Q1030
  • 180230Z AUTO 16002KT 9999 // ///TCU 04/03 Q1030
  • 180200Z AUTO 16004KT 9999 // ///TCU 04/04 Q1031
  • 180130Z AUTO VRB02KT 9999 // FEW035 SCT072 05/04 Q1031
  • 180100Z AUTO 19003KT 9999 // FEW039 SCT210 04/04 Q1031

TAF AMD TAF LFBC
Valide du 17 à 09h jusqu'au 18 à 09h UTC


170940Z 1709/1809 27004KT 9999 FEW025 SCT040 BKN070
TEMPO 1709/1710 30015G30KT 3000 SHRA BKN025CB BKN035TCU
PROB40
TEMPO 1709/1710 30025G40KT 1500 TSRA BKN025CB BKN035TCU
PROB40
TEMPO 1710/1715 30017G27KT 4000 SHRA BKN025CB BKN035TCU
PROB30
TEMPO 1715/1721 SHRA BKN025CB BKN035TCU



MET'MAP, la Météo Aéronautique d'un coup d'oeil ! - Copyright ORBIFLY Décembre 2007 - Disclaimer

ORBIFLY MET'MAP TEAM :

Programmation & Développement : Alexandra Zaïnal
Sur une idée originale de : Baudouin d'Aumeries
Assistance à la programmation : Marc-Olivier Méhu
Soutien technique & logistique : Manuel Goepfert

Contact : metmap@orbifly.com




SOURCES & CREDITS :

   NOAA